sensor_id;sensor_type;location;lat;lon;timestamp;P1;durP1;ratioP1;P2;durP2;ratioP2
23804;SDS011;12083;52.098;7.582;2022-11-15T08:52:37;17.03;;;9.17;;
23804;SDS011;12083;52.098;7.582;2022-11-15T08:55:21;12.00;;;6.47;;
23804;SDS011;12083;52.098;7.582;2022-11-15T08:58:06;14.47;;;6.57;;
23804;SDS011;12083;52.098;7.582;2022-11-15T09:00:50;10.27;;;6.63;;
23804;SDS011;12083;52.098;7.582;2022-11-15T09:03:35;10.60;;;5.70;;
23804;SDS011;12083;52.098;7.582;2022-11-15T09:06:19;9.43;;;5.70;;
23804;SDS011;12083;52.098;7.582;2022-11-15T09:09:03;8.10;;;5.37;;
23804;SDS011;12083;52.098;7.582;2022-11-15T09:11:48;8.00;;;5.47;;
23804;SDS011;12083;52.098;7.582;2022-11-15T09:14:32;7.90;;;4.77;;
23804;SDS011;12083;52.098;7.582;2022-11-15T09:17:17;6.50;;;4.53;;
23804;SDS011;12083;52.098;7.582;2022-11-15T09:20:01;8.47;;;3.40;;
23804;SDS011;12083;52.098;7.582;2022-11-15T09:22:45;5.63;;;3.47;;
23804;SDS011;12083;52.098;7.582;2022-11-15T09:25:30;3.30;;;3.00;;
23804;SDS011;12083;52.098;7.582;2022-11-15T09:28:14;3.33;;;2.73;;
23804;SDS011;12083;52.098;7.582;2022-11-15T09:30:59;5.40;;;3.10;;
23804;SDS011;12083;52.098;7.582;2022-11-15T09:33:45;3.77;;;2.73;;
23804;SDS011;12083;52.098;7.582;2022-11-15T09:36:30;6.43;;;3.00;;
23804;SDS011;12083;52.098;7.582;2022-11-15T09:39:14;3.50;;;2.43;;
23804;SDS011;12083;52.098;7.582;2022-11-15T09:42:04;5.73;;;2.43;;
23804;SDS011;12083;52.098;7.582;2022-11-15T09:51:30;1.63;;;1.53;;
23804;SDS011;12083;52.098;7.582;2022-11-15T09:54:01;4.33;;;1.53;;
23804;SDS011;12083;52.098;7.582;2022-11-15T09:56:31;1.47;;;1.37;;
23804;SDS011;12083;52.098;7.582;2022-11-15T09:59:04;4.13;;;1.53;;
23804;SDS011;12083;52.098;7.582;2022-11-15T10:02:03;5.43;;;1.90;;
23804;SDS011;12083;52.098;7.582;2022-11-15T10:04:43;3.17;;;1.70;;
23804;SDS011;12083;52.098;7.582;2022-11-15T10:09:39;2.60;;;1.40;;
23804;SDS011;12083;52.098;7.582;2022-11-15T10:12:11;3.00;;;2.40;;
23804;SDS011;12083;52.098;7.582;2022-11-15T10:14:38;3.73;;;1.73;;
23804;SDS011;12083;52.098;7.582;2022-11-15T10:17:19;2.10;;;1.63;;
23804;SDS011;12083;52.098;7.582;2022-11-15T10:19:56;2.80;;;1.87;;
23804;SDS011;12083;52.098;7.582;2022-11-15T10:22:46;4.87;;;1.63;;
23804;SDS011;12083;52.098;7.582;2022-11-15T10:25:19;2.03;;;1.83;;
23804;SDS011;12083;52.098;7.582;2022-11-15T10:27:50;2.80;;;1.73;;
23804;SDS011;12083;52.098;7.582;2022-11-15T10:30:20;1.60;;;1.50;;
23804;SDS011;12083;52.098;7.582;2022-11-15T10:32:46;4.03;;;1.63;;
23804;SDS011;12083;52.098;7.582;2022-11-15T10:35:25;1.30;;;1.20;;
23804;SDS011;12083;52.098;7.582;2022-11-15T10:38:00;2.10;;;1.07;;
23804;SDS011;12083;52.098;7.582;2022-11-15T10:40:31;0.83;;;0.60;;
23804;SDS011;12083;52.098;7.582;2022-11-15T10:43:12;1.30;;;1.13;;
23804;SDS011;12083;52.098;7.582;2022-11-15T10:45:40;2.30;;;1.00;;
23804;SDS011;12083;52.098;7.582;2022-11-15T10:50:39;0.87;;;0.87;;
23804;SDS011;12083;52.098;7.582;2022-11-15T10:53:22;2.83;;;1.10;;
23804;SDS011;12083;52.098;7.582;2022-11-15T10:55:49;3.90;;;1.37;;
23804;SDS011;12083;52.098;7.582;2022-11-15T11:01:21;2.20;;;1.20;;
23804;SDS011;12083;52.098;7.582;2022-11-15T11:06:27;2.20;;;1.30;;
23804;SDS011;12083;52.098;7.582;2022-11-15T11:09:01;1.20;;;1.10;;
23804;SDS011;12083;52.098;7.582;2022-11-15T11:11:44;3.30;;;1.50;;
23804;SDS011;12083;52.098;7.582;2022-11-15T11:14:21;0.90;;;0.80;;
23804;SDS011;12083;52.098;7.582;2022-11-15T11:22:25;1.33;;;1.23;;
23804;SDS011;12083;52.098;7.582;2022-11-15T11:25:15;1.97;;;1.30;;
23804;SDS011;12083;52.098;7.582;2022-11-15T11:33:43;5.50;;;1.23;;
23804;SDS011;12083;52.098;7.582;2022-11-15T11:39:18;1.23;;;0.90;;
23804;SDS011;12083;52.098;7.582;2022-11-15T11:50:38;1.13;;;0.97;;
23804;SDS011;12083;52.098;7.582;2022-11-15T11:53:26;3.23;;;0.80;;
23804;SDS011;12083;52.098;7.582;2022-11-15T11:55:57;2.70;;;1.20;;
23804;SDS011;12083;52.098;7.582;2022-11-15T11:58:31;2.03;;;0.70;;
23804;SDS011;12083;52.098;7.582;2022-11-15T12:01:14;3.57;;;2.07;;
23804;SDS011;12083;52.098;7.582;2022-11-15T12:03:54;3.80;;;1.10;;
23804;SDS011;12083;52.098;7.582;2022-11-15T12:14:32;3.13;;;0.90;;
23804;SDS011;12083;52.098;7.582;2022-11-15T12:17:21;9.30;;;0.90;;
23804;SDS011;12083;52.098;7.582;2022-11-15T12:19:49;1.20;;;1.10;;
23804;SDS011;12083;52.098;7.582;2022-11-15T12:22:19;0.70;;;0.70;;
23804;SDS011;12083;52.098;7.582;2022-11-15T12:24:51;1.53;;;0.87;;
23804;SDS011;12083;52.098;7.582;2022-11-15T12:27:21;3.87;;;1.47;;
23804;SDS011;12083;52.098;7.582;2022-11-15T12:30:03;3.23;;;1.00;;
23804;SDS011;12083;52.098;7.582;2022-11-15T12:32:35;1.20;;;1.10;;
23804;SDS011;12083;52.098;7.582;2022-11-15T12:35:03;1.53;;;1.20;;
23804;SDS011;12083;52.098;7.582;2022-11-15T12:42:38;0.80;;;0.80;;
23804;SDS011;12083;52.098;7.582;2022-11-15T12:45:23;3.00;;;0.93;;
23804;SDS011;12083;52.098;7.582;2022-11-15T12:47:52;2.70;;;1.07;;
23804;SDS011;12083;52.098;7.582;2022-11-15T12:50:47;3.90;;;0.80;;
23804;SDS011;12083;52.098;7.582;2022-11-15T12:58:53;0.70;;;0.70;;
23804;SDS011;12083;52.098;7.582;2022-11-15T13:11:54;0.70;;;0.50;;
23804;SDS011;12083;52.098;7.582;2022-11-15T13:19:48;1.63;;;0.80;;
23804;SDS011;12083;52.098;7.582;2022-11-15T13:22:20;2.80;;;1.10;;
23804;SDS011;12083;52.098;7.582;2022-11-15T13:25:04;1.93;;;1.17;;
23804;SDS011;12083;52.098;7.582;2022-11-15T13:27:49;1.20;;;0.70;;
23804;SDS011;12083;52.098;7.582;2022-11-15T13:30:20;0.97;;;0.80;;
23804;SDS011;12083;52.098;7.582;2022-11-15T13:32:47;2.03;;;0.90;;
23804;SDS011;12083;52.098;7.582;2022-11-15T13:35:20;2.00;;;1.07;;
23804;SDS011;12083;52.098;7.582;2022-11-15T13:37:46;1.77;;;0.73;;
23804;SDS011;12083;52.098;7.582;2022-11-15T13:40:24;3.83;;;0.70;;
23804;SDS011;12083;52.098;7.582;2022-11-15T13:42:56;4.00;;;1.10;;
23804;SDS011;12083;52.098;7.582;2022-11-15T13:45:23;1.67;;;0.80;;
23804;SDS011;12083;52.098;7.582;2022-11-15T13:47:53;1.43;;;0.80;;
23804;SDS011;12083;52.098;7.582;2022-11-15T13:50:22;1.37;;;0.90;;
23804;SDS011;12083;52.098;7.582;2022-11-15T13:52:51;1.17;;;1.00;;
23804;SDS011;12083;52.098;7.582;2022-11-15T13:55:19;1.80;;;1.50;;
23804;SDS011;12083;52.098;7.582;2022-11-15T13:57:51;4.83;;;0.80;;
23804;SDS011;12083;52.098;7.582;2022-11-15T14:02:51;6.60;;;2.57;;
23804;SDS011;12083;52.098;7.582;2022-11-15T14:05:19;4.97;;;1.00;;
23804;SDS011;12083;52.098;7.582;2022-11-15T14:07:57;2.60;;;1.80;;
23804;SDS011;12083;52.098;7.582;2022-11-15T14:12:58;2.23;;;1.20;;
23804;SDS011;12083;52.098;7.582;2022-11-15T14:17:58;8.30;;;3.67;;
23804;SDS011;12083;52.098;7.582;2022-11-15T14:23:25;3.13;;;1.53;;
23804;SDS011;12083;52.098;7.582;2022-11-15T14:25:53;2.50;;;1.53;;
